sensor_id;sensor_type;location;lat;lon;timestamp;temperature;humidity
10828;DHT22;5467;59.334;13.512;2023-03-14T00:01:38;5.10;99.90
10828;DHT22;5467;59.334;13.512;2023-03-14T00:04:06;5.00;99.90
10828;DHT22;5467;59.334;13.512;2023-03-14T00:06:35;5.00;99.90
10828;DHT22;5467;59.334;13.512;2023-03-14T00:09:02;5.00;99.90
10828;DHT22;5467;59.334;13.512;2023-03-14T00:11:29;5.00;99.90
10828;DHT22;5467;59.334;13.512;2023-03-14T00:13:57;4.90;99.90
10828;DHT22;5467;59.334;13.512;2023-03-14T00:16:25;5.00;99.90
10828;DHT22;5467;59.334;13.512;2023-03-14T00:18:52;4.90;99.90
10828;DHT22;5467;59.334;13.512;2023-03-14T00:21:21;4.90;99.90
10828;DHT22;5467;59.334;13.512;2023-03-14T00:23:48;4.90;99.90
10828;DHT22;5467;59.334;13.512;2023-03-14T00:26:16;4.90;99.90
10828;DHT22;5467;59.334;13.512;2023-03-14T00:28:44;4.90;99.90
10828;DHT22;5467;59.334;13.512;2023-03-14T00:31:14;4.90;99.90
10828;DHT22;5467;59.334;13.512;2023-03-14T00:33:42;4.90;99.90
10828;DHT22;5467;59.334;13.512;2023-03-14T00:36:12;4.80;99.90
10828;DHT22;5467;59.334;13.512;2023-03-14T00:38:41;4.80;99.90
10828;DHT22;5467;59.334;13.512;2023-03-14T00:41:10;4.80;99.90
10828;DHT22;5467;59.334;13.512;2023-03-14T00:43:39;4.80;99.90
10828;DHT22;5467;59.334;13.512;2023-03-14T00:46:06;4.80;99.90
10828;DHT22;5467;59.334;13.512;2023-03-14T00:48:34;4.80;99.90
10828;DHT22;5467;59.334;13.512;2023-03-14T00:51:01;4.80;99.90
10828;DHT22;5467;59.334;13.512;2023-03-14T00:53:28;4.70;99.90
10828;DHT22;5467;59.334;13.512;2023-03-14T00:56:01;4.70;99.90
10828;DHT22;5467;59.334;13.512;2023-03-14T00:58:28;4.70;99.90
10828;DHT22;5467;59.334;13.512;2023-03-14T01:00:55;4.60;99.90
10828;DHT22;5467;59.334;13.512;2023-03-14T01:03:22;4.50;99.90
10828;DHT22;5467;59.334;13.512;2023-03-14T01:05:50;4.50;99.90
10828;DHT22;5467;59.334;13.512;2023-03-14T01:08:17;4.40;99.90
10828;DHT22;5467;59.334;13.512;2023-03-14T01:10:44;4.30;99.90
10828;DHT22;5467;59.334;13.512;2023-03-14T01:13:13;4.30;99.90
10828;DHT22;5467;59.334;13.512;2023-03-14T01:15:40;4.30;99.90
10828;DHT22;5467;59.334;13.512;2023-03-14T01:18:07;4.30;99.90
10828;DHT22;5467;59.334;13.512;2023-03-14T01:20:37;4.30;99.90
10828;DHT22;5467;59.334;13.512;2023-03-14T01:23:04;4.20;99.90
10828;DHT22;5467;59.334;13.512;2023-03-14T01:25:31;4.10;99.90
10828;DHT22;5467;59.334;13.512;2023-03-14T01:27:58;4.00;99.90
10828;DHT22;5467;59.334;13.512;2023-03-14T01:30:27;4.00;99.90
10828;DHT22;5467;59.334;13.512;2023-03-14T01:32:54;3.90;99.90
10828;DHT22;5467;59.334;13.512;2023-03-14T01:35:21;4.00;99.90
10828;DHT22;5467;59.334;13.512;2023-03-14T01:37:49;3.80;99.90
10828;DHT22;5467;59.334;13.512;2023-03-14T01:40:16;3.70;99.90
10828;DHT22;5467;59.334;13.512;2023-03-14T01:42:46;3.80;99.90
10828;DHT22;5467;59.334;13.512;2023-03-14T01:48:19;3.40;99.90
10828;DHT22;5467;59.334;13.512;2023-03-14T01:50:46;3.30;99.90
10828;DHT22;5467;59.334;13.512;2023-03-14T01:53:14;3.10;99.90
10828;DHT22;5467;59.334;13.512;2023-03-14T01:55:43;2.90;99.90
10828;DHT22;5467;59.334;13.512;2023-03-14T01:58:10;2.70;99.90
10828;DHT22;5467;59.334;13.512;2023-03-14T02:00:37;2.60;99.90
10828;DHT22;5467;59.334;13.512;2023-03-14T02:03:08;2.60;99.90
10828;DHT22;5467;59.334;13.512;2023-03-14T02:05:40;2.60;99.90
10828;DHT22;5467;59.334;13.512;2023-03-14T02:08:10;2.50;99.90
10828;DHT22;5467;59.334;13.512;2023-03-14T02:10:41;2.40;99.90
10828;DHT22;5467;59.334;13.512;2023-03-14T02:13:10;2.30;99.90
10828;DHT22;5467;59.334;13.512;2023-03-14T02:15:38;2.40;99.90
10828;DHT22;5467;59.334;13.512;2023-03-14T02:18:06;2.30;99.90
10828;DHT22;5467;59.334;13.512;2023-03-14T02:20:38;2.30;99.90
10828;DHT22;5467;59.334;13.512;2023-03-14T02:23:11;2.20;99.90
10828;DHT22;5467;59.334;13.512;2023-03-14T02:25:41;2.20;99.90
10828;DHT22;5467;59.334;13.512;2023-03-14T02:28:11;2.30;99.90
10828;DHT22;5467;59.334;13.512;2023-03-14T02:30:38;2.20;99.90
10828;DHT22;5467;59.334;13.512;2023-03-14T02:33:07;2.20;99.90
10828;DHT22;5467;59.334;13.512;2023-03-14T02:35:40;2.10;99.90
10828;DHT22;5467;59.334;13.512;2023-03-14T02:38:13;2.10;99.90
10828;DHT22;5467;59.334;13.512;2023-03-14T02:40:42;2.00;99.90
10828;DHT22;5467;59.334;13.512;2023-03-14T02:43:11;1.90;99.90
10828;DHT22;5467;59.334;13.512;2023-03-14T02:45:41;1.90;99.90
10828;DHT22;5467;59.334;13.512;2023-03-14T02:48:13;1.80;99.90
10828;DHT22;5467;59.334;13.512;2023-03-14T02:50:41;1.70;99.90
10828;DHT22;5467;59.334;13.512;2023-03-14T02:53:08;1.70;99.90
10828;DHT22;5467;59.334;13.512;2023-03-14T02:55:35;1.60;99.90
10828;DHT22;5467;59.334;13.512;2023-03-14T02:58:02;1.60;99.90
10828;DHT22;5467;59.334;13.512;2023-03-14T03:00:31;1.60;99.90
10828;DHT22;5467;59.334;13.512;2023-03-14T03:02:58;1.60;99.90
10828;DHT22;5467;59.334;13.512;2023-03-14T03:05:26;1.60;99.90
10828;DHT22;5467;59.334;13.512;2023-03-14T03:07:54;1.60;99.90
10828;DHT22;5467;59.334;13.512;2023-03-14T03:10:22;1.60;99.90
10828;DHT22;5467;59.334;13.512;2023-03-14T03:12:49;1.60;99.90
10828;DHT22;5467;59.334;13.512;2023-03-14T03:15:17;1.50;99.90
10828;DHT22;5467;59.334;13.512;2023-03-14T03:17:45;1.50;99.90
10828;DHT22;5467;59.334;13.512;2023-03-14T03:20:13;1.40;99.90
10828;DHT22;5467;59.334;13.512;2023-03-14T03:22:40;1.40;99.90
10828;DHT22;5467;59.334;13.512;2023-03-14T03:25:08;1.50;99.90
10828;DHT22;5467;59.334;13.512;2023-03-14T03:27:37;1.50;99.90
10828;DHT22;5467;59.334;13.512;2023-03-14T03:30:05;1.40;99.90
10828;DHT22;5467;59.334;13.512;2023-03-14T03:32:33;1.40;99.90
10828;DHT22;5467;59.334;13.512;2023-03-14T03:35:02;1.40;99.90
10828;DHT22;5467;59.334;13.512;2023-03-14T03:37:30;1.40;99.90
10828;DHT22;5467;59.334;13.512;2023-03-14T03:39:58;1.40;99.90
10828;DHT22;5467;59.334;13.512;2023-03-14T03:42:26;1.40;99.90
10828;DHT22;5467;59.334;13.512;2023-03-14T03:44:53;1.50;99.90
10828;DHT22;5467;59.334;13.512;2023-03-14T03:47:21;1.50;99.90
10828;DHT22;5467;59.334;13.512;2023-03-14T03:49:48;1.60;99.90
10828;DHT22;5467;59.334;13.512;2023-03-14T03:52:17;1.60;99.90
10828;DHT22;5467;59.334;13.512;2023-03-14T03:54:44;1.60;99.90
10828;DHT22;5467;59.334;13.512;2023-03-14T03:57:11;1.60;99.90
10828;DHT22;5467;59.334;13.512;2023-03-14T03:59:38;1.60;99.90
10828;DHT22;5467;59.334;13.512;2023-03-14T04:02:06;1.60;99.90
10828;DHT22;5467;59.334;13.512;2023-03-14T04:04:33;1.60;99.90
10828;DHT22;5467;59.334;13.512;2023-03-14T04:07:01;1.60;99.90
10828;DHT22;5467;59.334;13.512;2023-03-14T04:09:29;1.60;99.90
10828;DHT22;5467;59.334;13.512;2023-03-14T04:11:56;1.60;99.90
10828;DHT22;5467;59.334;13.512;2023-03-14T04:14:23;1.40;99.90
10828;DHT22;5467;59.334;13.512;2023-03-14T04:16:50;1.30;99.90
10828;DHT22;5467;59.334;13.512;2023-03-14T04:19:17;1.30;99.90
10828;DHT22;5467;59.334;13.512;2023-03-14T04:21:44;1.30;99.90
10828;DHT22;5467;59.334;13.512;2023-03-14T04:24:12;1.30;99.90
10828;DHT22;5467;59.334;13.512;2023-03-14T04:26:41;1.30;99.90
10828;DHT22;5467;59.334;13.512;2023-03-14T04:29:08;1.20;99.90
10828;DHT22;5467;59.334;13.512;2023-03-14T04:31:35;1.20;99.90
10828;DHT22;5467;59.334;13.512;2023-03-14T04:34:02;1.20;99.90
10828;DHT22;5467;59.334;13.512;2023-03-14T04:36:29;1.10;99.90
10828;DHT22;5467;59.334;13.512;2023-03-14T04:38:56;1.10;99.90
10828;DHT22;5467;59.334;13.512;2023-03-14T04:41:23;1.10;99.90
10828;DHT22;5467;59.334;13.512;2023-03-14T04:43:52;1.10;99.90
10828;DHT22;5467;59.334;13.512;2023-03-14T04:46:19;1.00;99.90
10828;DHT22;5467;59.334;13.512;2023-03-14T04:48:46;1.00;99.90
10828;DHT22;5467;59.334;13.512;2023-03-14T04:51:13;1.00;99.90
10828;DHT22;5467;59.334;13.512;2023-03-14T04:53:40;0.90;99.90
10828;DHT22;5467;59.334;13.512;2023-03-14T04:56:08;1.00;99.90
10828;DHT22;5467;59.334;13.512;2023-03-14T04:58:37;1.10;99.90
10828;DHT22;5467;59.334;13.512;2023-03-14T05:01:06;1.10;99.90
10828;DHT22;5467;59.334;13.512;2023-03-14T05:03:33;1.00;99.90
10828;DHT22;5467;59.334;13.512;2023-03-14T05:06:01;0.90;99.90
10828;DHT22;5467;59.334;13.512;2023-03-14T05:08:28;0.90;99.90
10828;DHT22;5467;59.334;13.512;2023-03-14T05:10:57;1.00;99.90
10828;DHT22;5467;59.334;13.512;2023-03-14T05:13:24;0.90;99.90
10828;DHT22;5467;59.334;13.512;2023-03-14T05:15:51;0.90;99.90
10828;DHT22;5467;59.334;13.512;2023-03-14T05:18:20;0.90;99.90
10828;DHT22;5467;59.334;13.512;2023-03-14T05:20:51;0.80;99.90
10828;DHT22;5467;59.334;13.512;2023-03-14T05:23:18;0.80;99.90
10828;DHT22;5467;59.334;13.512;2023-03-14T05:25:45;0.80;99.90
10828;DHT22;5467;59.334;13.512;2023-03-14T05:28:12;0.70;99.90
10828;DHT22;5467;59.334;13.512;2023-03-14T05:30:39;0.70;99.90
10828;DHT22;5467;59.334;13.512;2023-03-14T05:33:06;0.80;99.90
10828;DHT22;5467;59.334;13.512;2023-03-14T05:35:35;0.80;99.90
10828;DHT22;5467;59.334;13.512;2023-03-14T05:38:02;0.80;99.90
10828;DHT22;5467;59.334;13.512;2023-03-14T05:40:29;0.70;99.90
10828;DHT22;5467;59.334;13.512;2023-03-14T05:42:56;0.70;99.90
10828;DHT22;5467;59.334;13.512;2023-03-14T05:45:23;0.70;99.90
10828;DHT22;5467;59.334;13.512;2023-03-14T05:47:50;0.60;99.90
10828;DHT22;5467;59.334;13.512;2023-03-14T05:50:17;0.70;99.90
10828;DHT22;5467;59.334;13.512;2023-03-14T05:52:46;0.80;99.90
10828;DHT22;5467;59.334;13.512;2023-03-14T05:55:13;0.80;99.90
10828;DHT22;5467;59.334;13.512;2023-03-14T05:57:40;0.90;99.90
10828;DHT22;5467;59.334;13.512;2023-03-14T06:00:08;0.80;99.90
10828;DHT22;5467;59.334;13.512;2023-03-14T06:02:36;0.80;99.90
10828;DHT22;5467;59.334;13.512;2023-03-14T06:05:03;0.80;99.90
10828;DHT22;5467;59.334;13.512;2023-03-14T06:07:31;0.70;99.90
10828;DHT22;5467;59.334;13.512;2023-03-14T06:09:59;0.70;99.90
10828;DHT22;5467;59.334;13.512;2023-03-14T06:12:26;0.80;99.90
10828;DHT22;5467;59.334;13.512;2023-03-14T06:14:53;0.80;99.90
10828;DHT22;5467;59.334;13.512;2023-03-14T06:17:21;0.80;99.90
10828;DHT22;5467;59.334;13.512;2023-03-14T06:19:48;0.70;99.90
10828;DHT22;5467;59.334;13.512;2023-03-14T06:22:15;0.80;99.90
10828;DHT22;5467;59.334;13.512;2023-03-14T06:24:42;0.80;99.90
10828;DHT22;5467;59.334;13.512;2023-03-14T06:27:11;0.80;99.90
10828;DHT22;5467;59.334;13.512;2023-03-14T06:29:38;0.80;99.90
10828;DHT22;5467;59.334;13.512;2023-03-14T06:32:05;0.70;99.90
10828;DHT22;5467;59.334;13.512;2023-03-14T06:34:32;0.70;99.90
10828;DHT22;5467;59.334;13.512;2023-03-14T06:36:59;0.70;99.90
10828;DHT22;5467;59.334;13.512;2023-03-14T06:39:26;0.60;99.90
10828;DHT22;5467;59.334;13.512;2023-03-14T06:41:53;0.50;99.90
10828;DHT22;5467;59.334;13.512;2023-03-14T06:44:22;0.50;99.90
10828;DHT22;5467;59.334;13.512;2023-03-14T06:46:49;0.40;99.90
10828;DHT22;5467;59.334;13.512;2023-03-14T06:49:16;0.40;99.90
10828;DHT22;5467;59.334;13.512;2023-03-14T06:51:43;0.50;99.90
10828;DHT22;5467;59.334;13.512;2023-03-14T06:54:11;0.50;99.90
10828;DHT22;5467;59.334;13.512;2023-03-14T06:56:38;0.40;99.90
10828;DHT22;5467;59.334;13.512;2023-03-14T06:59:05;0.40;99.90
10828;DHT22;5467;59.334;13.512;2023-03-14T07:01:34;0.50;99.90
10828;DHT22;5467;59.334;13.512;2023-03-14T07:04:02;0.60;99.90
10828;DHT22;5467;59.334;13.512;2023-03-14T07:06:29;0.70;99.90
10828;DHT22;5467;59.334;13.512;2023-03-14T07:08:56;0.60;99.90
10828;DHT22;5467;59.334;13.512;2023-03-14T07:11:24;0.50;99.90
10828;DHT22;5467;59.334;13.512;2023-03-14T07:13:51;0.60;99.90
10828;DHT22;5467;59.334;13.512;2023-03-14T07:16:18;0.60;99.90
10828;DHT22;5467;59.334;13.512;2023-03-14T07:18:47;0.60;99.90
10828;DHT22;5467;59.334;13.512;2023-03-14T07:21:14;0.70;99.90
10828;DHT22;5467;59.334;13.512;2023-03-14T07:23:42;0.70;99.90
10828;DHT22;5467;59.334;13.512;2023-03-14T07:26:09;0.80;99.90
10828;DHT22;5467;59.334;13.512;2023-03-14T07:28:36;0.80;99.90
10828;DHT22;5467;59.334;13.512;2023-03-14T07:31:03;0.70;99.90
10828;DHT22;5467;59.334;13.512;2023-03-14T07:33:30;0.90;99.90
10828;DHT22;5467;59.334;13.512;2023-03-14T07:35:59;0.80;99.90
10828;DHT22;5467;59.334;13.512;2023-03-14T07:38:26;0.80;99.90
10828;DHT22;5467;59.334;13.512;2023-03-14T07:40:58;0.80;99.90
10828;DHT22;5467;59.334;13.512;2023-03-14T07:43:25;0.80;99.90
10828;DHT22;5467;59.334;13.512;2023-03-14T07:45:53;0.80;99.90
10828;DHT22;5467;59.334;13.512;2023-03-14T07:48:20;0.80;99.90
10828;DHT22;5467;59.334;13.512;2023-03-14T07:50:48;0.70;99.90
10828;DHT22;5467;59.334;13.512;2023-03-14T07:53:17;0.70;99.90
10828;DHT22;5467;59.334;13.512;2023-03-14T07:55:44;0.80;99.90
10828;DHT22;5467;59.334;13.512;2023-03-14T07:58:12;0.90;99.90
10828;DHT22;5467;59.334;13.512;2023-03-14T08:00:39;0.90;99.90
10828;DHT22;5467;59.334;13.512;2023-03-14T08:03:06;0.90;99.90
10828;DHT22;5467;59.334;13.512;2023-03-14T08:05:34;0.90;99.90
10828;DHT22;5467;59.334;13.512;2023-03-14T08:08:02;1.10;99.90
10828;DHT22;5467;59.334;13.512;2023-03-14T08:10:31;1.00;99.90
10828;DHT22;5467;59.334;13.512;2023-03-14T08:12:59;1.10;99.90
10828;DHT22;5467;59.334;13.512;2023-03-14T08:15:29;1.10;99.90
10828;DHT22;5467;59.334;13.512;2023-03-14T08:17:56;1.00;99.90
10828;DHT22;5467;59.334;13.512;2023-03-14T08:20:25;1.10;99.90
10828;DHT22;5467;59.334;13.512;2023-03-14T08:22:55;1.10;99.90
10828;DHT22;5467;59.334;13.512;2023-03-14T08:25:23;1.20;99.90
10828;DHT22;5467;59.334;13.512;2023-03-14T08:27:52;1.20;99.90
10828;DHT22;5467;59.334;13.512;2023-03-14T08:30:21;1.20;99.90
10828;DHT22;5467;59.334;13.512;2023-03-14T08:32:48;1.20;99.90
10828;DHT22;5467;59.334;13.512;2023-03-14T08:35:16;1.20;99.90
10828;DHT22;5467;59.334;13.512;2023-03-14T08:37:43;1.20;99.90
10828;DHT22;5467;59.334;13.512;2023-03-14T08:40:11;1.30;99.90
10828;DHT22;5467;59.334;13.512;2023-03-14T08:42:39;1.40;99.90
10828;DHT22;5467;59.334;13.512;2023-03-14T08:45:11;1.40;99.90
10828;DHT22;5467;59.334;13.512;2023-03-14T08:47:38;1.60;99.90
10828;DHT22;5467;59.334;13.512;2023-03-14T08:50:07;1.60;99.90
10828;DHT22;5467;59.334;13.512;2023-03-14T08:52:35;1.80;99.90
10828;DHT22;5467;59.334;13.512;2023-03-14T08:55:04;2.10;99.90
10828;DHT22;5467;59.334;13.512;2023-03-14T08:57:31;2.10;99.90
10828;DHT22;5467;59.334;13.512;2023-03-14T08:59:58;2.30;99.90
10828;DHT22;5467;59.334;13.512;2023-03-14T09:02:26;2.30;99.90
10828;DHT22;5467;59.334;13.512;2023-03-14T09:04:54;2.40;99.90
10828;DHT22;5467;59.334;13.512;2023-03-14T09:07:21;2.40;99.90
10828;DHT22;5467;59.334;13.512;2023-03-14T09:09:48;2.40;99.90
10828;DHT22;5467;59.334;13.512;2023-03-14T09:12:15;2.40;99.90
10828;DHT22;5467;59.334;13.512;2023-03-14T09:14:42;2.30;99.90
10828;DHT22;5467;59.334;13.512;2023-03-14T09:17:09;2.40;99.90
10828;DHT22;5467;59.334;13.512;2023-03-14T09:19:38;2.40;99.90
10828;DHT22;5467;59.334;13.512;2023-03-14T09:22:05;2.40;99.90
10828;DHT22;5467;59.334;13.512;2023-03-14T09:24:32;2.50;99.90
10828;DHT22;5467;59.334;13.512;2023-03-14T09:26:59;2.50;99.90
10828;DHT22;5467;59.334;13.512;2023-03-14T09:29:26;2.50;99.90
10828;DHT22;5467;59.334;13.512;2023-03-14T09:31:53;2.40;99.90
10828;DHT22;5467;59.334;13.512;2023-03-14T09:34:20;2.50;99.90
10828;DHT22;5467;59.334;13.512;2023-03-14T09:36:49;2.50;99.90
10828;DHT22;5467;59.334;13.512;2023-03-14T09:39:16;2.50;99.90
10828;DHT22;5467;59.334;13.512;2023-03-14T09:41:45;2.50;99.90
10828;DHT22;5467;59.334;13.512;2023-03-14T09:44:15;2.50;99.90
10828;DHT22;5467;59.334;13.512;2023-03-14T09:46:46;2.50;99.90
10828;DHT22;5467;59.334;13.512;2023-03-14T09:49:19;2.70;99.90
10828;DHT22;5467;59.334;13.512;2023-03-14T09:51:51;2.80;99.90
10828;DHT22;5467;59.334;13.512;2023-03-14T09:54:30;2.70;99.90
10828;DHT22;5467;59.334;13.512;2023-03-14T09:56:58;2.80;99.90
10828;DHT22;5467;59.334;13.512;2023-03-14T09:59:27;2.90;99.90
10828;DHT22;5467;59.334;13.512;2023-03-14T10:01:57;3.10;99.90
10828;DHT22;5467;59.334;13.512;2023-03-14T10:04:25;3.30;99.90
10828;DHT22;5467;59.334;13.512;2023-03-14T10:06:54;3.30;99.90
10828;DHT22;5467;59.334;13.512;2023-03-14T10:09:23;3.30;99.90
10828;DHT22;5467;59.334;13.512;2023-03-14T10:11:54;3.30;99.90
10828;DHT22;5467;59.334;13.512;2023-03-14T10:14:33;3.40;99.90
10828;DHT22;5467;59.334;13.512;2023-03-14T10:17:08;3.40;99.90
10828;DHT22;5467;59.334;13.512;2023-03-14T10:19:36;3.40;99.90
10828;DHT22;5467;59.334;13.512;2023-03-14T10:22:05;3.50;99.90
10828;DHT22;5467;59.334;13.512;2023-03-14T10:24:34;3.50;99.90
10828;DHT22;5467;59.334;13.512;2023-03-14T10:27:04;3.40;99.90
10828;DHT22;5467;59.334;13.512;2023-03-14T10:29:33;3.30;99.90
10828;DHT22;5467;59.334;13.512;2023-03-14T10:32:02;3.20;99.90
10828;DHT22;5467;59.334;13.512;2023-03-14T10:34:31;3.50;99.90
10828;DHT22;5467;59.334;13.512;2023-03-14T10:37:07;3.60;99.90
10828;DHT22;5467;59.334;13.512;2023-03-14T10:39:41;3.60;99.90
10828;DHT22;5467;59.334;13.512;2023-03-14T10:42:17;3.70;99.90
10828;DHT22;5467;59.334;13.512;2023-03-14T10:44:46;3.60;99.90
10828;DHT22;5467;59.334;13.512;2023-03-14T10:47:19;3.40;99.90
10828;DHT22;5467;59.334;13.512;2023-03-14T10:49:47;3.40;99.90
10828;DHT22;5467;59.334;13.512;2023-03-14T10:52:20;3.60;99.90
10828;DHT22;5467;59.334;13.512;2023-03-14T10:54:53;3.50;99.90
10828;DHT22;5467;59.334;13.512;2023-03-14T10:57:21;3.50;99.90
10828;DHT22;5467;59.334;13.512;2023-03-14T10:59:48;3.30;99.90
10828;DHT22;5467;59.334;13.512;2023-03-14T11:02:36;3.30;99.90
10828;DHT22;5467;59.334;13.512;2023-03-14T11:05:15;3.30;99.90
10828;DHT22;5467;59.334;13.512;2023-03-14T11:07:47;3.50;99.90
10828;DHT22;5467;59.334;13.512;2023-03-14T11:10:19;3.70;99.90
10828;DHT22;5467;59.334;13.512;2023-03-14T11:12:57;3.70;99.90
10828;DHT22;5467;59.334;13.512;2023-03-14T11:15:31;3.90;99.90
10828;DHT22;5467;59.334;13.512;2023-03-14T11:18:26;3.80;99.90
10828;DHT22;5467;59.334;13.512;2023-03-14T11:21:01;3.70;99.90
10828;DHT22;5467;59.334;13.512;2023-03-14T11:23:38;3.80;99.90
10828;DHT22;5467;59.334;13.512;2023-03-14T11:26:16;3.50;99.90
10828;DHT22;5467;59.334;13.512;2023-03-14T11:28:49;3.50;99.90
10828;DHT22;5467;59.334;13.512;2023-03-14T11:31:20;3.60;99.90
10828;DHT22;5467;59.334;13.512;2023-03-14T11:33:56;3.60;99.90
10828;DHT22;5467;59.334;13.512;2023-03-14T11:36:28;3.60;99.90
10828;DHT22;5467;59.334;13.512;2023-03-14T11:38:59;3.60;99.90
10828;DHT22;5467;59.334;13.512;2023-03-14T11:41:30;3.70;99.90
10828;DHT22;5467;59.334;13.512;2023-03-14T11:44:00;3.60;99.90
10828;DHT22;5467;59.334;13.512;2023-03-14T11:46:31;3.70;99.90
10828;DHT22;5467;59.334;13.512;2023-03-14T11:49:04;3.80;99.90
10828;DHT22;5467;59.334;13.512;2023-03-14T11:51:34;4.00;99.90
10828;DHT22;5467;59.334;13.512;2023-03-14T11:54:11;4.10;99.90
10828;DHT22;5467;59.334;13.512;2023-03-14T11:56:46;3.90;99.90
10828;DHT22;5467;59.334;13.512;2023-03-14T11:59:17;3.80;99.90
10828;DHT22;5467;59.334;13.512;2023-03-14T12:01:57;3.80;99.90
10828;DHT22;5467;59.334;13.512;2023-03-14T12:04:50;3.80;99.90
10828;DHT22;5467;59.334;13.512;2023-03-14T12:07:20;3.70;99.90
10828;DHT22;5467;59.334;13.512;2023-03-14T12:09:51;3.80;99.90
10828;DHT22;5467;59.334;13.512;2023-03-14T12:12:21;3.80;99.90
10828;DHT22;5467;59.334;13.512;2023-03-14T12:14:54;3.70;99.90
10828;DHT22;5467;59.334;13.512;2023-03-14T12:17:24;3.60;99.90
10828;DHT22;5467;59.334;13.512;2023-03-14T12:20:03;3.60;99.90
10828;DHT22;5467;59.334;13.512;2023-03-14T12:22:34;3.70;99.90
10828;DHT22;5467;59.334;13.512;2023-03-14T12:25:15;3.50;99.90
10828;DHT22;5467;59.334;13.512;2023-03-14T12:27:47;3.40;99.90
10828;DHT22;5467;59.334;13.512;2023-03-14T12:30:25;3.50;99.90
10828;DHT22;5467;59.334;13.512;2023-03-14T12:36:03;3.40;99.90
10828;DHT22;5467;59.334;13.512;2023-03-14T12:38:55;3.30;99.90
10828;DHT22;5467;59.334;13.512;2023-03-14T12:41:29;3.30;99.90
10828;DHT22;5467;59.334;13.512;2023-03-14T12:43:56;3.30;99.90
10828;DHT22;5467;59.334;13.512;2023-03-14T12:46:25;3.20;99.90
10828;DHT22;5467;59.334;13.512;2023-03-14T12:49:04;3.40;99.90
10828;DHT22;5467;59.334;13.512;2023-03-14T12:51:35;3.30;99.90
10828;DHT22;5467;59.334;13.512;2023-03-14T12:54:24;3.30;99.90
10828;DHT22;5467;59.334;13.512;2023-03-14T12:59:46;3.20;99.90
10828;DHT22;5467;59.334;13.512;2023-03-14T13:02:21;3.10;99.90
10828;DHT22;5467;59.334;13.512;2023-03-14T13:04:51;3.10;99.90
10828;DHT22;5467;59.334;13.512;2023-03-14T13:08:01;3.00;99.90
10828;DHT22;5467;59.334;13.512;2023-03-14T13:10:26;3.10;99.90
10828;DHT22;5467;59.334;13.512;2023-03-14T13:12:57;3.10;99.90
10828;DHT22;5467;59.334;13.512;2023-03-14T13:15:31;3.00;99.90
10828;DHT22;5467;59.334;13.512;2023-03-14T13:18:02;2.90;99.90
10828;DHT22;5467;59.334;13.512;2023-03-14T13:20:32;2.90;99.90
10828;DHT22;5467;59.334;13.512;2023-03-14T13:23:01;3.00;99.90
10828;DHT22;5467;59.334;13.512;2023-03-14T13:25:33;3.10;99.90
10828;DHT22;5467;59.334;13.512;2023-03-14T13:28:02;3.20;99.90
10828;DHT22;5467;59.334;13.512;2023-03-14T13:30:38;3.30;99.90
10828;DHT22;5467;59.334;13.512;2023-03-14T13:33:05;3.30;99.90
10828;DHT22;5467;59.334;13.512;2023-03-14T13:35:40;3.30;99.90
10828;DHT22;5467;59.334;13.512;2023-03-14T13:38:16;3.40;99.90
10828;DHT22;5467;59.334;13.512;2023-03-14T13:40:45;3.50;99.90
10828;DHT22;5467;59.334;13.512;2023-03-14T13:43:19;3.60;99.90
10828;DHT22;5467;59.334;13.512;2023-03-14T13:45:51;3.60;99.90
10828;DHT22;5467;59.334;13.512;2023-03-14T13:48:20;3.60;99.90
10828;DHT22;5467;59.334;13.512;2023-03-14T13:50:53;3.50;99.90
10828;DHT22;5467;59.334;13.512;2023-03-14T13:53:21;3.60;99.90
10828;DHT22;5467;59.334;13.512;2023-03-14T13:55:49;3.50;99.90
10828;DHT22;5467;59.334;13.512;2023-03-14T13:58:29;3.40;99.90
10828;DHT22;5467;59.334;13.512;2023-03-14T14:01:00;3.40;99.90
10828;DHT22;5467;59.334;13.512;2023-03-14T14:03:30;3.30;99.90
10828;DHT22;5467;59.334;13.512;2023-03-14T14:05:57;3.40;99.90
10828;DHT22;5467;59.334;13.512;2023-03-14T14:08:25;3.30;99.90
10828;DHT22;5467;59.334;13.512;2023-03-14T14:10:58;3.30;99.90
10828;DHT22;5467;59.334;13.512;2023-03-14T14:13:30;3.40;99.90
10828;DHT22;5467;59.334;13.512;2023-03-14T14:16:01;3.20;99.90
10828;DHT22;5467;59.334;13.512;2023-03-14T14:18:30;3.20;99.90
10828;DHT22;5467;59.334;13.512;2023-03-14T14:20:58;3.10;99.90
10828;DHT22;5467;59.334;13.512;2023-03-14T14:23:28;3.10;99.90
10828;DHT22;5467;59.334;13.512;2023-03-14T14:25:58;3.20;99.90
10828;DHT22;5467;59.334;13.512;2023-03-14T14:28:29;3.30;99.90
10828;DHT22;5467;59.334;13.512;2023-03-14T14:31:02;3.50;99.90
10828;DHT22;5467;59.334;13.512;2023-03-14T14:33:38;3.50;99.90
10828;DHT22;5467;59.334;13.512;2023-03-14T14:36:17;3.40;99.90
10828;DHT22;5467;59.334;13.512;2023-03-14T14:38:57;3.40;99.90
10828;DHT22;5467;59.334;13.512;2023-03-14T14:41:30;3.40;99.90
10828;DHT22;5467;59.334;13.512;2023-03-14T14:43:59;3.30;99.90
10828;DHT22;5467;59.334;13.512;2023-03-14T14:46:29;3.30;99.90
10828;DHT22;5467;59.334;13.512;2023-03-14T14:49:01;3.40;99.90
10828;DHT22;5467;59.334;13.512;2023-03-14T14:51:34;3.30;99.90
10828;DHT22;5467;59.334;13.512;2023-03-14T14:54:12;3.20;99.90
10828;DHT22;5467;59.334;13.512;2023-03-14T14:56:39;3.10;99.90
10828;DHT22;5467;59.334;13.512;2023-03-14T14:59:23;3.00;99.90
10828;DHT22;5467;59.334;13.512;2023-03-14T15:01:54;2.80;99.90
10828;DHT22;5467;59.334;13.512;2023-03-14T15:04:21;2.90;99.90
10828;DHT22;5467;59.334;13.512;2023-03-14T15:06:50;2.90;99.90
10828;DHT22;5467;59.334;13.512;2023-03-14T15:09:19;2.80;99.90
10828;DHT22;5467;59.334;13.512;2023-03-14T15:11:46;2.90;99.90
10828;DHT22;5467;59.334;13.512;2023-03-14T15:14:15;3.00;99.90
10828;DHT22;5467;59.334;13.512;2023-03-14T15:16:42;3.00;99.90
10828;DHT22;5467;59.334;13.512;2023-03-14T15:19:12;3.00;99.90
10828;DHT22;5467;59.334;13.512;2023-03-14T15:21:41;3.00;99.90
10828;DHT22;5467;59.334;13.512;2023-03-14T15:24:09;3.10;99.90
10828;DHT22;5467;59.334;13.512;2023-03-14T15:26:36;3.10;99.90
10828;DHT22;5467;59.334;13.512;2023-03-14T15:29:04;3.00;99.90
10828;DHT22;5467;59.334;13.512;2023-03-14T15:31:35;3.10;99.90
10828;DHT22;5467;59.334;13.512;2023-03-14T15:34:02;3.00;99.90
10828;DHT22;5467;59.334;13.512;2023-03-14T15:36:30;3.10;99.90
10828;DHT22;5467;59.334;13.512;2023-03-14T15:38:59;3.10;99.90
10828;DHT22;5467;59.334;13.512;2023-03-14T15:41:27;3.00;99.90
10828;DHT22;5467;59.334;13.512;2023-03-14T15:43:55;3.00;99.90
10828;DHT22;5467;59.334;13.512;2023-03-14T15:46:22;2.90;99.90
10828;DHT22;5467;59.334;13.512;2023-03-14T15:48:52;2.80;99.90
10828;DHT22;5467;59.334;13.512;2023-03-14T15:51:19;2.70;99.90
10828;DHT22;5467;59.334;13.512;2023-03-14T15:53:46;2.60;99.90
10828;DHT22;5467;59.334;13.512;2023-03-14T15:56:15;2.60;99.90
10828;DHT22;5467;59.334;13.512;2023-03-14T15:58:43;2.60;99.90
10828;DHT22;5467;59.334;13.512;2023-03-14T16:01:12;2.60;99.90
10828;DHT22;5467;59.334;13.512;2023-03-14T16:03:41;2.50;99.90
10828;DHT22;5467;59.334;13.512;2023-03-14T16:06:11;2.50;99.90
10828;DHT22;5467;59.334;13.512;2023-03-14T16:08:38;2.60;99.90